createdAt,value
2022-12-23T00:01:28.428Z,8.60
2022-12-23T00:03:59.392Z,7.90
2022-12-23T00:06:26.638Z,7.90
2022-12-23T00:08:58.588Z,7.80
2022-12-23T00:11:27.607Z,7.70
2022-12-23T00:14:19.930Z,7.70
2022-12-23T00:16:48.773Z,7.70
2022-12-23T00:19:15.568Z,7.70
2022-12-23T00:21:42.275Z,7.70
2022-12-23T00:24:09.014Z,7.70
2022-12-23T00:26:35.689Z,7.60
2022-12-23T00:29:02.376Z,7.60
2022-12-23T00:31:29.111Z,7.60
2022-12-23T00:33:55.891Z,7.50
2022-12-23T00:36:28.821Z,7.60
2022-12-23T00:39:16.724Z,7.60
2022-12-23T00:42:02.238Z,7.60
2022-12-23T00:44:28.950Z,7.60
2022-12-23T00:46:55.692Z,7.60
2022-12-23T00:49:41.539Z,7.60
2022-12-23T00:52:10.993Z,7.60
2022-12-23T00:54:37.857Z,7.60
2022-12-23T00:57:04.899Z,7.50
2022-12-23T00:59:31.620Z,7.50
2022-12-23T01:02:17.118Z,7.40
2022-12-23T01:05:02.632Z,7.60
2022-12-23T01:07:29.361Z,7.70
2022-12-23T01:09:56.102Z,7.60
2022-12-23T01:12:22.843Z,8.00
2022-12-23T01:14:49.574Z,7.50
2022-12-23T01:17:16.469Z,7.50
2022-12-23T01:19:43.267Z,7.60
2022-12-23T01:22:10.048Z,7.60
2022-12-23T01:24:36.743Z,7.50
2022-12-23T01:27:03.684Z,7.50
2022-12-23T01:29:30.418Z,7.40
2022-12-23T01:31:57.334Z,7.30
2022-12-23T01:34:24.264Z,7.20
2022-12-23T01:36:50.963Z,7.20
2022-12-23T01:39:17.736Z,7.40
2022-12-23T01:42:03.212Z,7.70
2022-12-23T01:45:21.442Z,7.30
2022-12-23T01:48:15.736Z,7.30
2022-12-23T01:50:53.756Z,7.30
2022-12-23T01:53:24.072Z,7.30
2022-12-23T01:55:52.685Z,7.30
2022-12-23T01:58:27.616Z,7.30
2022-12-23T02:01:14.496Z,7.30
2022-12-23T02:03:45.060Z,7.30
2022-12-23T02:09:59.546Z,7.30
2022-12-23T02:12:43.778Z,7.30
2022-12-23T02:15:39.269Z,7.30
2022-12-23T02:18:50.252Z,7.10
2022-12-23T02:21:41.726Z,7.20
2022-12-23T02:24:21.660Z,7.30
2022-12-23T02:27:13.009Z,7.20
2022-12-23T02:30:20.050Z,7.30
2022-12-23T02:33:09.630Z,7.40
2022-12-23T02:35:45.838Z,7.30
2022-12-23T02:38:44.538Z,7.30
2022-12-23T02:41:23.268Z,7.30
2022-12-23T02:44:01.833Z,7.30
2022-12-23T02:46:54.531Z,7.30
2022-12-23T02:49:32.187Z,7.30
2022-12-23T02:52:03.081Z,7.30
2022-12-23T02:54:32.390Z,7.30
2022-12-23T02:57:01.729Z,7.30
2022-12-23T02:59:34.139Z,7.30
2022-12-23T03:02:01.072Z,7.30
2022-12-23T03:04:27.826Z,7.20
2022-12-23T03:06:57.233Z,7.20
2022-12-23T03:09:40.139Z,7.30
2022-12-23T03:12:26.740Z,7.20
2022-12-23T03:15:12.772Z,7.30
2022-12-23T03:18:01.063Z,7.40
2022-12-23T03:20:56.936Z,7.30
2022-12-23T03:23:29.368Z,7.30
2022-12-23T03:26:02.718Z,7.10
2022-12-23T03:28:46.277Z,8.00
2022-12-23T03:31:18.059Z,7.00
2022-12-23T03:33:48.506Z,6.90
2022-12-23T03:36:38.316Z,7.00
2022-12-23T03:39:10.654Z,7.30
2022-12-23T03:41:43.633Z,7.40
2022-12-23T03:44:16.386Z,7.40
2022-12-23T03:46:49.834Z,7.50
2022-12-23T03:49:37.251Z,7.50
2022-12-23T03:52:14.553Z,7.50
2022-12-23T03:54:53.091Z,7.50
2022-12-23T03:57:24.771Z,7.50
2022-12-23T03:59:51.798Z,7.60
2022-12-23T04:02:33.715Z,7.60
2022-12-23T04:05:05.833Z,7.70
2022-12-23T04:07:51.571Z,7.70
2022-12-23T04:10:20.604Z,7.60
2022-12-23T04:12:47.939Z,7.60
2022-12-23T04:15:20.019Z,7.60
2022-12-23T04:17:46.875Z,7.50
2022-12-23T04:20:13.734Z,7.50
2022-12-23T04:22:40.445Z,7.50
2022-12-23T04:25:07.450Z,7.50
2022-12-23T04:27:34.231Z,7.50
2022-12-23T04:30:00.990Z,7.50
2022-12-23T04:32:27.800Z,7.50
2022-12-23T04:34:54.481Z,7.40
2022-12-23T04:37:21.224Z,7.40
2022-12-23T04:39:47.926Z,7.50
2022-12-23T04:42:14.667Z,7.50
2022-12-23T04:44:41.402Z,7.60
2022-12-23T04:47:08.212Z,7.70
2022-12-23T04:49:35.078Z,7.60
2022-12-23T04:52:01.940Z,7.60
2022-12-23T04:54:28.711Z,7.70
2022-12-23T04:56:55.539Z,7.70
2022-12-23T04:59:22.405Z,7.70
2022-12-23T05:01:49.698Z,7.60
2022-12-23T05:04:16.915Z,7.60
2022-12-23T05:06:43.797Z,7.60
2022-12-23T05:09:10.553Z,7.50
2022-12-23T05:11:42.036Z,7.50
2022-12-23T05:14:13.223Z,7.40
2022-12-23T05:16:40.296Z,7.50
2022-12-23T05:19:07.117Z,7.40
2022-12-23T05:21:33.851Z,7.40
2022-12-23T05:24:00.605Z,7.50
2022-12-23T05:26:27.347Z,7.60
2022-12-23T05:28:54.956Z,7.90
2022-12-23T05:31:21.757Z,7.60
2022-12-23T05:33:48.735Z,7.80
2022-12-23T05:36:15.509Z,7.70
2022-12-23T05:38:42.223Z,7.70
2022-12-23T05:41:08.960Z,7.70
2022-12-23T05:43:35.654Z,7.80
2022-12-23T05:46:02.394Z,7.90
2022-12-23T05:48:32.270Z,8.00
2022-12-23T05:50:59.254Z,8.10
2022-12-23T05:53:26.349Z,8.20
2022-12-23T05:55:53.130Z,8.70
2022-12-23T05:58:19.951Z,8.20
2022-12-23T06:00:46.750Z,8.20
2022-12-23T06:03:13.818Z,8.20
2022-12-23T06:05:43.419Z,8.10
2022-12-23T06:08:10.247Z,8.00
2022-12-23T06:10:37.019Z,8.10
2022-12-23T06:13:03.749Z,8.10
2022-12-23T06:15:30.708Z,8.10
2022-12-23T06:17:57.437Z,8.00
2022-12-23T06:20:24.182Z,7.90
2022-12-23T06:22:50.903Z,7.80
2022-12-23T06:25:17.627Z,7.80
2022-12-23T06:27:44.428Z,7.80
2022-12-23T06:30:11.428Z,7.80
2022-12-23T06:32:39.171Z,7.80
2022-12-23T06:35:07.315Z,7.80
2022-12-23T06:37:34.184Z,7.90
2022-12-23T06:40:01.078Z,7.80
2022-12-23T06:42:27.838Z,7.90
2022-12-23T06:44:54.829Z,8.00
2022-12-23T06:47:21.607Z,8.10
2022-12-23T06:49:48.330Z,8.10
2022-12-23T06:52:15.023Z,8.00
2022-12-23T06:54:41.743Z,7.90
2022-12-23T06:57:08.505Z,7.90
2022-12-23T06:59:35.244Z,7.70
2022-12-23T07:02:02.229Z,7.80
2022-12-23T07:04:29.084Z,7.70
2022-12-23T07:06:56.108Z,7.70
2022-12-23T07:09:22.846Z,7.60
2022-12-23T07:11:49.608Z,7.60
2022-12-23T07:14:16.339Z,7.50
2022-12-23T07:16:43.096Z,7.40
2022-12-23T07:19:09.858Z,7.50
2022-12-23T07:21:38.714Z,7.50
2022-12-23T07:24:06.092Z,7.40
2022-12-23T07:26:32.808Z,7.60
2022-12-23T07:28:59.534Z,7.60
2022-12-23T07:31:26.346Z,7.70
2022-12-23T07:33:53.127Z,7.70
2022-12-23T07:36:19.828Z,7.80
2022-12-23T07:38:50.502Z,7.90
2022-12-23T07:41:17.771Z,7.90
2022-12-23T07:43:44.455Z,7.80
2022-12-23T07:46:11.273Z,7.80
2022-12-23T07:48:39.840Z,7.80
2022-12-23T07:51:06.606Z,7.80
2022-12-23T07:53:33.410Z,7.80
2022-12-23T07:56:00.180Z,7.80
2022-12-23T07:58:26.980Z,7.80
2022-12-23T08:01:06.275Z,7.80
2022-12-23T08:03:33.147Z,7.80
2022-12-23T08:06:02.419Z,7.80
2022-12-23T08:08:29.575Z,7.80
2022-12-23T08:10:58.309Z,8.00
2022-12-23T08:13:25.096Z,8.10
2022-12-23T08:15:56.768Z,8.00
2022-12-23T08:18:24.049Z,8.00
2022-12-23T08:20:58.312Z,8.10
2022-12-23T08:23:26.007Z,8.10
2022-12-23T08:26:07.386Z,8.20
2022-12-23T08:28:35.265Z,8.30
2022-12-23T08:31:07.934Z,8.30
2022-12-23T08:33:36.694Z,8.40
2022-12-23T08:36:04.756Z,8.50
2022-12-23T08:38:31.496Z,8.50
2022-12-23T08:40:58.250Z,8.60
2022-12-23T08:43:30.227Z,8.30
2022-12-23T08:46:00.497Z,8.20
2022-12-23T08:48:27.226Z,8.60
2022-12-23T08:50:53.955Z,8.30
2022-12-23T08:53:20.781Z,8.50
2022-12-23T08:55:47.973Z,8.90
2022-12-23T08:58:15.900Z,8.80
2022-12-23T09:00:42.855Z,8.90
2022-12-23T09:03:09.892Z,9.00
2022-12-23T09:05:41.181Z,9.00
2022-12-23T09:08:09.087Z,9.10
2022-12-23T09:10:41.994Z,9.00
2022-12-23T09:13:10.673Z,9.00
2022-12-23T09:15:44.517Z,9.10
2022-12-23T09:18:12.004Z,9.00
2022-12-23T09:20:38.901Z,9.10
2022-12-23T09:23:06.231Z,9.10
2022-12-23T09:25:35.179Z,9.10
2022-12-23T09:28:02.220Z,9.10
2022-12-23T09:30:29.327Z,9.00
2022-12-23T09:32:56.041Z,9.10
2022-12-23T09:35:22.826Z,9.30
2022-12-23T09:37:49.575Z,9.30
2022-12-23T09:40:20.785Z,9.70
2022-12-23T09:43:10.063Z,9.30
2022-12-23T09:45:45.985Z,9.40
2022-12-23T09:48:16.713Z,9.20
2022-12-23T09:50:44.195Z,9.30
2022-12-23T09:53:23.684Z,9.20
2022-12-23T09:56:00.147Z,9.30
2022-12-23T09:58:35.693Z,9.30
2022-12-23T10:01:21.297Z,9.30
2022-12-23T10:04:12.530Z,9.30
2022-12-23T10:06:41.375Z,9.20
2022-12-23T10:09:10.178Z,9.20
2022-12-23T10:11:43.855Z,9.20
2022-12-23T10:14:24.901Z,9.30
2022-12-23T10:17:08.877Z,9.20
2022-12-23T10:19:43.087Z,9.20
2022-12-23T10:22:16.228Z,9.10
2022-12-23T10:24:45.819Z,9.10
2022-12-23T10:27:35.783Z,9.20
2022-12-23T10:30:34.340Z,9.20
2022-12-23T10:33:20.992Z,9.20
2022-12-23T10:36:10.936Z,9.10
2022-12-23T10:38:59.039Z,9.30
2022-12-23T10:41:25.999Z,9.40
2022-12-23T10:44:29.883Z,9.30
2022-12-23T10:47:15.474Z,9.50
2022-12-23T10:50:39.717Z,9.50
2022-12-23T10:53:11.171Z,9.40
2022-12-23T10:55:39.060Z,9.40
2022-12-23T10:58:13.219Z,9.30
2022-12-23T11:00:43.141Z,9.30
2022-12-23T11:03:17.556Z,9.40
2022-12-23T11:05:46.052Z,9.40
2022-12-23T11:08:12.786Z,9.40
2022-12-23T11:10:40.101Z,9.40
2022-12-23T11:13:06.855Z,9.40
2022-12-23T11:15:36.683Z,9.30
2022-12-23T11:18:06.809Z,9.30
2022-12-23T11:20:35.752Z,9.40
2022-12-23T11:23:04.479Z,9.30
2022-12-23T11:25:40.533Z,9.40
2022-12-23T11:28:10.951Z,9.40
2022-12-23T11:30:56.302Z,9.40
2022-12-23T11:33:23.470Z,9.60
2022-12-23T11:36:04.745Z,9.40
2022-12-23T11:38:32.583Z,9.40
2022-12-23T11:40:59.654Z,9.40
2022-12-23T11:43:27.558Z,9.40
2022-12-23T11:46:26.925Z,9.40
2022-12-23T11:49:17.064Z,9.40
2022-12-23T11:52:17.009Z,9.30
2022-12-23T11:54:54.375Z,9.30
2022-12-23T11:57:31.531Z,9.30
2022-12-23T12:00:02.325Z,9.60
2022-12-23T12:02:44.806Z,9.30
2022-12-23T12:05:22.810Z,9.30
2022-12-23T12:07:51.592Z,9.30
2022-12-23T12:10:28.640Z,9.30
2022-12-23T12:12:58.185Z,9.90
2022-12-23T12:15:42.902Z,9.30
2022-12-23T12:18:14.652Z,9.30
2022-12-23T12:20:50.752Z,9.30
2022-12-23T12:24:18.224Z,9.30
2022-12-23T12:26:51.200Z,9.40
2022-12-23T12:29:32.763Z,9.70
2022-12-23T12:32:01.570Z,9.00
2022-12-23T12:34:50.369Z,9.30
2022-12-23T12:37:35.840Z,9.30
2022-12-23T12:40:36.799Z,9.20
2022-12-23T12:43:31.019Z,9.20
2022-12-23T12:46:20.499Z,9.20
2022-12-23T12:49:03.735Z,9.20
2022-12-23T12:51:38.134Z,9.20
2022-12-23T12:54:10.222Z,9.20
2022-12-23T12:56:44.052Z,9.30
2022-12-23T12:59:21.221Z,9.10
2022-12-23T13:02:24.445Z,9.20
2022-12-23T13:05:22.350Z,9.10
2022-12-23T13:08:30.522Z,9.20
2022-12-23T13:11:08.174Z,9.10
2022-12-23T13:13:55.992Z,9.10
2022-12-23T13:16:48.207Z,9.10
2022-12-23T13:19:28.990Z,9.10
2022-12-23T13:22:16.142Z,9.10
2022-12-23T13:24:55.552Z,9.20
2022-12-23T13:27:34.447Z,9.20
2022-12-23T13:30:13.264Z,9.20
2022-12-23T13:33:06.861Z,9.20
2022-12-23T13:36:05.045Z,9.20
2022-12-23T13:38:44.452Z,9.20
2022-12-23T13:41:35.698Z,9.20
2022-12-23T13:44:06.136Z,9.20
2022-12-23T13:46:39.342Z,9.20
2022-12-23T13:49:26.995Z,9.30
2022-12-23T13:52:00.323Z,9.30
2022-12-23T13:54:36.270Z,9.20
2022-12-23T13:57:38.578Z,9.30
2022-12-23T14:00:30.115Z,9.40
2022-12-23T14:03:00.144Z,9.30
2022-12-23T14:05:46.737Z,9.30
2022-12-23T14:08:19.495Z,9.30
2022-12-23T14:11:02.425Z,9.30
2022-12-23T14:13:40.747Z,9.30
2022-12-23T14:16:32.220Z,9.30
2022-12-23T14:19:27.896Z,9.20
2022-12-23T14:22:19.691Z,9.20
2022-12-23T14:25:16.127Z,9.20
2022-12-23T14:27:58.380Z,9.20
2022-12-23T14:30:37.503Z,9.20
2022-12-23T14:33:13.757Z,9.20
2022-12-23T14:35:42.863Z,9.20
2022-12-23T14:38:15.679Z,9.10
2022-12-23T14:40:42.375Z,9.10
2022-12-23T14:43:27.866Z,9.10
2022-12-23T14:45:56.588Z,9.10
2022-12-23T14:48:35.641Z,9.10
2022-12-23T14:51:10.119Z,9.10
2022-12-23T14:53:58.221Z,9.00
2022-12-23T14:56:43.433Z,9.00
2022-12-23T14:59:29.883Z,9.40
2022-12-23T15:02:00.287Z,9.00
2022-12-23T15:04:55.275Z,9.00
2022-12-23T15:07:27.918Z,9.00
2022-12-23T15:10:01.151Z,9.00
2022-12-23T15:12:34.889Z,9.00
2022-12-23T15:15:16.755Z,9.00
2022-12-23T15:17:43.665Z,8.90
2022-12-23T15:20:10.419Z,8.90
2022-12-23T15:22:38.986Z,8.90
2022-12-23T15:25:34.614Z,8.90
2022-12-23T15:28:03.335Z,9.00
2022-12-23T15:30:46.164Z,8.90
2022-12-23T15:34:00.641Z,8.90
2022-12-23T15:36:07.289Z,8.80
2022-12-23T15:38:37.611Z,8.80
2022-12-23T15:41:16.027Z,8.90
2022-12-23T15:50:47.580Z,8.80
2022-12-23T15:53:17.061Z,8.80
2022-12-23T15:55:44.903Z,8.80
2022-12-23T15:58:24.138Z,8.80
2022-12-23T16:00:55.528Z,8.80
2022-12-23T16:03:34.572Z,8.80
2022-12-23T16:06:16.624Z,8.90
2022-12-23T16:08:44.434Z,8.90
2022-12-23T16:15:07.236Z,8.80
2022-12-23T16:17:37.906Z,8.90
2022-12-23T16:20:26.559Z,8.90
2022-12-23T16:22:56.557Z,9.00
2022-12-23T16:25:29.013Z,9.00
2022-12-23T16:27:58.760Z,9.00
2022-12-23T16:30:32.700Z,9.00
2022-12-23T16:33:02.873Z,9.00
2022-12-23T16:35:34.402Z,8.90
2022-12-23T16:38:23.037Z,8.90
2022-12-23T16:40:57.060Z,8.90
2022-12-23T16:43:25.259Z,9.10
2022-12-23T16:45:55.541Z,9.10
2022-12-23T16:48:30.235Z,9.20
2022-12-23T16:50:57.662Z,9.10
2022-12-23T16:53:24.421Z,9.20
2022-12-23T16:55:55.321Z,9.20
2022-12-23T16:58:25.487Z,9.20
2022-12-23T17:00:52.855Z,9.20
2022-12-23T17:03:20.691Z,9.10
2022-12-23T17:05:48.151Z,9.20
2022-12-23T17:08:15.400Z,9.20
2022-12-23T17:10:44.629Z,9.20
2022-12-23T17:13:13.797Z,9.30
2022-12-23T17:15:40.528Z,9.40
2022-12-23T17:18:13.742Z,9.50
2022-12-23T17:20:41.667Z,9.50
2022-12-23T17:23:30.872Z,9.40
2022-12-23T17:25:57.979Z,9.40
2022-12-23T17:28:31.272Z,9.40
2022-12-23T17:30:58.855Z,9.40
2022-12-23T17:33:29.998Z,9.40
2022-12-23T17:35:57.113Z,9.50
2022-12-23T17:38:23.943Z,9.60
2022-12-23T17:40:51.264Z,9.70
2022-12-23T17:45:47.022Z,10.00
2022-12-23T17:48:20.599Z,10.10
2022-12-23T17:50:48.512Z,10.30
2022-12-23T17:53:17.263Z,10.30
2022-12-23T17:55:44.926Z,9.80
2022-12-23T18:00:41.451Z,10.50
2022-12-23T18:03:20.727Z,10.70
2022-12-23T18:05:47.391Z,10.70
2022-12-23T18:08:14.096Z,10.80
2022-12-23T18:10:40.938Z,11.00
2022-12-23T18:13:13.960Z,10.90
2022-12-23T18:15:42.738Z,11.10
2022-12-23T18:18:19.145Z,11.20
2022-12-23T18:20:52.893Z,11.10
2022-12-23T18:23:26.065Z,11.20
2022-12-23T18:25:53.309Z,11.50
2022-12-23T18:28:20.143Z,11.10
2022-12-23T18:30:47.090Z,11.10
2022-12-23T18:33:14.250Z,11.10
2022-12-23T18:35:48.584Z,11.10
2022-12-23T18:38:16.173Z,11.10
2022-12-23T18:40:43.826Z,11.10
2022-12-23T18:43:25.028Z,11.10
2022-12-23T18:45:53.953Z,11.10
2022-12-23T18:48:21.601Z,11.10
2022-12-23T18:50:48.564Z,11.10
2022-12-23T18:53:23.414Z,11.00
2022-12-23T18:55:51.088Z,11.10
2022-12-23T18:58:20.705Z,10.90
2022-12-23T19:00:48.589Z,11.40
2022-12-23T19:03:27.971Z,10.90
2022-12-23T19:05:56.009Z,10.90
2022-12-23T19:08:27.455Z,10.80
2022-12-23T19:10:55.008Z,10.90
2022-12-23T19:13:22.119Z,11.00
2022-12-23T19:15:49.303Z,10.90
2022-12-23T19:18:19.160Z,10.90
2022-12-23T19:20:47.239Z,10.90
2022-12-23T19:23:14.821Z,10.90
2022-12-23T19:25:43.510Z,10.80
2022-12-23T19:28:13.165Z,10.90
2022-12-23T19:30:41.706Z,11.60
2022-12-23T19:33:09.677Z,11.50
2022-12-23T19:35:36.720Z,10.80
2022-12-23T19:38:04.157Z,10.70
2022-12-23T19:40:32.021Z,10.80
2022-12-23T19:42:58.845Z,11.20
2022-12-23T19:45:25.599Z,10.80
2022-12-23T19:47:53.106Z,10.70
2022-12-23T19:50:20.065Z,10.70
2022-12-23T19:52:46.844Z,10.90
2022-12-23T19:55:15.551Z,10.70
2022-12-23T19:57:43.043Z,10.60
2022-12-23T20:00:10.216Z,10.70
2022-12-23T20:02:36.999Z,10.70
2022-12-23T20:05:04.551Z,10.80
2022-12-23T20:07:31.243Z,10.80
2022-12-23T20:09:57.985Z,10.70
2022-12-23T20:12:26.415Z,10.70
2022-12-23T20:14:53.210Z,10.60
2022-12-23T20:17:19.948Z,10.60
2022-12-23T20:19:46.697Z,10.60
2022-12-23T20:22:13.664Z,10.50
2022-12-23T20:24:40.448Z,10.50
2022-12-23T20:27:11.237Z,10.50
2022-12-23T20:29:39.363Z,10.40
2022-12-23T20:32:06.149Z,10.30
2022-12-23T20:34:38.749Z,10.60
2022-12-23T20:37:07.013Z,10.30
2022-12-23T20:39:33.736Z,10.20
2022-12-23T20:42:00.514Z,10.10
2022-12-23T20:44:36.667Z,10.10
2022-12-23T20:47:05.653Z,10.00
2022-12-23T20:49:32.783Z,9.90
2022-12-23T20:51:59.623Z,9.80
2022-12-23T20:54:32.170Z,9.90
2022-12-23T20:56:59.762Z,9.90
2022-12-23T20:59:26.614Z,9.70
2022-12-23T21:01:53.500Z,10.00
2022-12-23T21:04:20.621Z,10.00
2022-12-23T21:06:47.989Z,9.90
2022-12-23T21:09:15.584Z,9.80
2022-12-23T21:11:44.829Z,9.80
2022-12-23T21:14:12.858Z,10.00
2022-12-23T21:16:40.405Z,10.00
2022-12-23T21:19:15.625Z,10.00
2022-12-23T21:21:42.779Z,10.00
2022-12-23T21:24:10.540Z,10.00
2022-12-23T21:26:37.687Z,10.00
2022-12-23T21:29:06.350Z,10.00
2022-12-23T21:31:35.285Z,10.10
2022-12-23T21:34:02.544Z,10.20
2022-12-23T21:36:32.125Z,10.20
2022-12-23T21:38:59.872Z,10.10
2022-12-23T21:41:29.347Z,10.10
2022-12-23T21:43:57.578Z,10.10
2022-12-23T21:46:25.312Z,10.20
2022-12-23T21:48:52.548Z,10.20
2022-12-23T21:51:22.140Z,10.10
2022-12-23T21:53:50.962Z,10.00
2022-12-23T21:56:20.257Z,10.00
2022-12-23T21:58:47.217Z,10.50
2022-12-23T22:01:19.564Z,9.80
2022-12-23T22:03:48.604Z,9.70
2022-12-23T22:06:21.239Z,9.70
2022-12-23T22:08:49.147Z,9.70
2022-12-23T22:11:19.146Z,9.60
2022-12-23T22:13:46.888Z,9.40
2022-12-23T22:16:19.777Z,9.60
2022-12-23T22:18:47.454Z,9.60
2022-12-23T22:21:17.068Z,9.60
2022-12-23T22:23:43.913Z,9.50
2022-12-23T22:26:16.428Z,10.10
2022-12-23T22:28:45.578Z,9.40
2022-12-23T22:31:27.391Z,9.30
2022-12-23T22:33:54.251Z,9.40
2022-12-23T22:36:21.058Z,9.40
2022-12-23T22:38:53.346Z,9.40
2022-12-23T22:41:20.317Z,9.40
2022-12-23T22:43:47.151Z,9.40
2022-12-23T22:46:13.963Z,9.40
2022-12-23T22:48:40.947Z,9.30
2022-12-23T22:51:13.312Z,9.30
2022-12-23T22:53:40.083Z,9.40
2022-12-23T22:56:07.414Z,9.40
2022-12-23T22:58:34.400Z,9.40
2022-12-23T23:01:01.724Z,9.30
2022-12-23T23:03:28.672Z,9.40
2022-12-23T23:06:04.616Z,9.40
2022-12-23T23:08:31.837Z,9.30
2022-12-23T23:11:01.424Z,9.40
2022-12-23T23:13:32.353Z,9.50
2022-12-23T23:15:59.736Z,9.30
2022-12-23T23:18:27.999Z,9.50
2022-12-23T23:20:54.996Z,9.30
2022-12-23T23:23:22.017Z,9.20
2022-12-23T23:25:48.724Z,9.30
2022-12-23T23:28:15.905Z,9.30
2022-12-23T23:30:42.825Z,9.30
2022-12-23T23:33:10.287Z,9.30
2022-12-23T23:35:37.303Z,9.20
2022-12-23T23:38:04.017Z,9.10
2022-12-23T23:40:30.786Z,9.20
2022-12-23T23:42:57.517Z,9.20
2022-12-23T23:45:24.282Z,9.00
2022-12-23T23:47:51.021Z,9.10
2022-12-23T23:50:17.883Z,9.20
2022-12-23T23:52:44.616Z,9.30
2022-12-23T23:55:11.371Z,9.30
2022-12-23T23:57:38.419Z,9.50
